createdAt,value
2022-12-11T00:00:22.700Z,8.23
2022-12-11T00:03:15.442Z,8.13
2022-12-11T00:05:43.773Z,8.17
2022-12-11T00:08:12.073Z,7.77
2022-12-11T00:10:38.944Z,6.80
2022-12-11T00:13:06.016Z,7.97
2022-12-11T00:15:32.850Z,7.40
2022-12-11T00:18:00.064Z,6.77
2022-12-11T00:20:27.225Z,7.17
2022-12-11T00:22:54.403Z,6.30
2022-12-11T00:25:21.247Z,6.57
2022-12-11T00:27:48.396Z,7.27
2022-12-11T00:30:15.338Z,6.93
2022-12-11T00:32:43.212Z,7.57
2022-12-11T00:35:10.807Z,6.57
2022-12-11T00:37:38.165Z,6.83
2022-12-11T00:40:05.481Z,7.13
2022-12-11T00:42:32.565Z,7.60
2022-12-11T00:44:59.312Z,6.20
2022-12-11T00:47:26.422Z,7.33
2022-12-11T00:49:53.276Z,7.10
2022-12-11T00:52:20.425Z,7.73
2022-12-11T00:54:47.283Z,7.60
2022-12-11T00:57:14.422Z,6.80
2022-12-11T00:59:41.249Z,6.57
2022-12-11T01:02:08.435Z,6.83
2022-12-11T01:04:36.887Z,7.10
2022-12-11T01:07:03.985Z,5.82
2022-12-11T01:09:49.390Z,6.17
2022-12-11T01:12:16.552Z,6.27
2022-12-11T01:14:43.349Z,6.53
2022-12-11T01:17:11.382Z,7.33
2022-12-11T01:19:38.309Z,6.40
2022-12-11T01:22:05.488Z,6.93
2022-12-11T01:24:32.325Z,6.70
2022-12-11T01:26:59.404Z,7.40
2022-12-11T01:29:26.256Z,6.93
2022-12-11T01:31:53.350Z,7.33
2022-12-11T01:34:20.172Z,6.70
2022-12-11T01:36:47.188Z,6.90
2022-12-11T01:39:14.032Z,7.10
2022-12-11T01:41:41.176Z,8.17
2022-12-11T01:44:27.896Z,7.33
2022-12-11T01:46:55.192Z,7.40
2022-12-11T01:49:27.165Z,6.82
2022-12-11T01:52:16.342Z,6.87
2022-12-11T01:57:13.418Z,5.83
2022-12-11T01:59:43.578Z,5.67
2022-12-11T02:02:26.649Z,6.00
2022-12-11T02:04:53.667Z,6.20
2022-12-11T02:07:20.908Z,4.50
2022-12-11T02:09:48.628Z,4.67
2022-12-11T02:12:26.468Z,4.30
2022-12-11T02:14:59.145Z,4.67
2022-12-11T02:18:04.821Z,4.67
2022-12-11T02:20:41.335Z,4.53
2022-12-11T02:23:32.701Z,4.90
2022-12-11T02:26:21.281Z,4.50
2022-12-11T02:31:38.363Z,4.83
2022-12-11T02:34:29.421Z,5.10
2022-12-11T02:37:03.157Z,4.77
2022-12-11T02:39:33.501Z,4.00
2022-12-11T02:42:02.098Z,6.20
2022-12-11T02:44:33.566Z,4.95
2022-12-11T02:47:03.388Z,5.13
2022-12-11T02:49:32.524Z,4.17
2022-12-11T02:52:02.868Z,4.53
2022-12-11T02:54:33.423Z,4.77
2022-12-11T02:57:17.295Z,5.37
2022-12-11T02:59:46.657Z,4.87
2022-12-11T03:04:42.929Z,5.03
2022-12-11T03:07:17.289Z,4.70
2022-12-11T03:09:46.637Z,5.00
2022-12-11T03:14:45.291Z,4.87
2022-12-11T03:17:48.946Z,5.00
2022-12-11T03:20:24.872Z,5.47
2022-12-11T03:23:14.844Z,5.70
2022-12-11T03:25:51.803Z,5.83
2022-12-11T03:28:36.074Z,6.03
2022-12-11T03:31:09.840Z,6.13
2022-12-11T03:33:42.226Z,6.20
2022-12-11T03:36:23.849Z,6.27
2022-12-11T03:38:56.218Z,6.07
2022-12-11T03:41:26.258Z,6.07
2022-12-11T03:43:57.188Z,5.27
2022-12-11T03:49:26.776Z,5.72
2022-12-11T03:51:56.979Z,5.03
2022-12-11T03:54:24.908Z,5.63
2022-12-11T03:56:55.965Z,4.80
2022-12-11T03:59:22.907Z,5.37
2022-12-11T04:01:50.584Z,5.73
2022-12-11T04:04:17.503Z,5.27
2022-12-11T04:06:44.778Z,5.70
2022-12-11T04:09:11.641Z,5.33
2022-12-11T04:11:39.667Z,5.47
2022-12-11T04:14:28.282Z,5.30
2022-12-11T04:19:42.229Z,5.23
2022-12-11T04:22:30.501Z,5.57
2022-12-11T04:24:57.389Z,5.00
2022-12-11T04:27:43.634Z,6.37
2022-12-11T04:30:15.747Z,5.30
2022-12-11T04:32:43.322Z,5.23
2022-12-11T04:35:11.629Z,5.47
2022-12-11T04:37:39.282Z,5.32
2022-12-11T04:40:09.352Z,4.60
2022-12-11T04:42:36.525Z,4.90
2022-12-11T04:45:04.900Z,5.23
2022-12-11T04:47:32.317Z,5.30
2022-12-11T04:49:59.096Z,4.40
2022-12-11T04:52:26.187Z,5.43
2022-12-11T04:54:52.969Z,4.53
2022-12-11T04:57:21.688Z,4.93
2022-12-11T04:59:49.062Z,4.93
2022-12-11T05:02:17.126Z,5.17
2022-12-11T05:04:43.997Z,5.27
2022-12-11T05:07:11.160Z,4.83
2022-12-11T05:09:38.132Z,5.07
2022-12-11T05:12:05.309Z,5.17
2022-12-11T05:14:32.745Z,6.10
2022-12-11T05:16:59.977Z,4.90
2022-12-11T05:19:27.225Z,5.00
2022-12-11T05:21:54.418Z,5.50
2022-12-11T05:24:21.292Z,5.10
2022-12-11T05:26:48.390Z,4.83
2022-12-11T05:29:15.214Z,6.43
2022-12-11T05:31:42.582Z,6.70
2022-12-11T05:34:09.525Z,6.83
2022-12-11T05:36:36.808Z,6.57
2022-12-11T05:39:04.175Z,6.40
2022-12-11T05:41:32.943Z,8.13
2022-12-11T05:44:00.393Z,6.32
2022-12-11T05:46:29.908Z,6.17
2022-12-11T05:49:01.758Z,5.10
2022-12-11T05:51:30.256Z,6.07
2022-12-11T05:53:57.772Z,4.03
2022-12-11T05:56:28.142Z,5.80
2022-12-11T05:58:56.224Z,5.93
2022-12-11T06:01:37.943Z,5.80
2022-12-11T06:04:06.851Z,5.17
2022-12-11T06:06:34.607Z,5.80
2022-12-11T06:09:02.209Z,5.63
2022-12-11T06:11:31.133Z,5.60
2022-12-11T06:13:58.481Z,5.00
2022-12-11T06:16:26.004Z,4.87
2022-12-11T06:18:57.017Z,4.77
2022-12-11T06:21:31.110Z,5.63
2022-12-11T06:24:02.055Z,5.07
2022-12-11T06:26:29.955Z,5.10
2022-12-11T06:28:56.840Z,5.50
2022-12-11T06:31:24.001Z,5.70
2022-12-11T06:33:50.922Z,4.47
2022-12-11T06:36:20.382Z,514.40
2022-12-11T06:38:47.974Z,243.03
2022-12-11T06:41:15.935Z,98.10
2022-12-11T06:43:43.475Z,28.90
2022-12-11T06:46:13.261Z,20.63
2022-12-11T06:48:42.392Z,18.40
2022-12-11T06:51:12.585Z,27.80
2022-12-11T06:53:40.089Z,36.80
2022-12-11T06:56:13.653Z,25.27
2022-12-11T06:58:41.896Z,14.43
2022-12-11T07:01:27.424Z,19.98
2022-12-11T07:03:55.749Z,56.97
2022-12-11T07:06:23.579Z,124.80
2022-12-11T07:08:50.893Z,212.80
2022-12-11T07:11:19.490Z,275.50
2022-12-11T07:13:46.833Z,281.48
2022-12-11T07:16:15.908Z,63.53
2022-12-11T07:18:51.897Z,217.48
2022-12-11T07:21:20.416Z,307.17
2022-12-11T07:23:48.054Z,129.52
2022-12-11T07:26:18.126Z,170.03
2022-12-11T07:28:45.474Z,109.70
2022-12-11T07:31:19.097Z,131.80
2022-12-11T07:33:46.273Z,151.27
2022-12-11T07:36:15.241Z,134.57
2022-12-11T07:38:42.328Z,207.52
2022-12-11T07:41:12.312Z,57.13
2022-12-11T07:43:39.237Z,112.63
2022-12-11T07:46:09.402Z,78.80
2022-12-11T07:48:37.201Z,72.80
2022-12-11T07:51:27.662Z,106.70
2022-12-11T07:54:16.762Z,67.13
2022-12-11T07:56:46.519Z,142.80
2022-12-11T07:59:17.032Z,167.43
2022-12-11T08:01:44.418Z,51.97
2022-12-11T08:04:12.768Z,75.40
2022-12-11T08:06:40.381Z,55.00
2022-12-11T08:09:11.928Z,191.60
2022-12-11T08:11:41.079Z,372.80
2022-12-11T08:14:08.920Z,54.13
2022-12-11T10:40:30.859Z,14.97
2022-12-11T10:42:58.193Z,10.73
2022-12-11T10:45:25.115Z,16.80
2022-12-11T10:48:06.766Z,24.70
2022-12-11T10:50:33.782Z,36.07
2022-12-11T10:53:00.885Z,20.97
2022-12-11T10:55:35.062Z,18.83
2022-12-11T10:58:05.890Z,104.67
2022-12-11T11:00:42.698Z,30.93
2022-12-11T11:03:36.737Z,17.53
2022-12-11T11:06:18.895Z,28.13
2022-12-11T11:08:49.043Z,90.73
2022-12-11T11:11:27.181Z,56.20
2022-12-11T11:14:20.393Z,24.35
2022-12-11T11:16:50.060Z,30.77
2022-12-11T11:19:22.671Z,70.60
2022-12-11T11:21:56.557Z,62.40
2022-12-11T11:24:40.281Z,29.17
2022-12-11T11:27:31.060Z,13.77
2022-12-11T11:30:08.567Z,24.60
2022-12-11T11:32:39.914Z,28.57
2022-12-11T11:35:13.041Z,128.93
2022-12-11T11:37:42.655Z,38.03
2022-12-11T11:40:25.864Z,17.47
2022-12-11T11:43:06.236Z,19.70
2022-12-11T11:45:55.813Z,16.00
2022-12-11T11:48:22.897Z,18.53
2022-12-11T11:50:50.789Z,16.13
2022-12-11T11:53:26.043Z,13.97
2022-12-11T11:56:06.156Z,24.47
2022-12-11T11:58:43.715Z,17.43
2022-12-11T12:01:20.912Z,39.93
2022-12-11T12:03:49.417Z,15.63
2022-12-11T12:06:36.278Z,18.92
2022-12-11T12:09:03.041Z,16.63
2022-12-11T12:11:58.405Z,13.80
2022-12-11T12:14:54.732Z,34.80
2022-12-11T12:17:43.302Z,34.60
2022-12-11T12:20:28.092Z,27.70
2022-12-11T12:23:02.669Z,68.07
2022-12-11T12:25:44.809Z,24.07
2022-12-11T12:28:26.817Z,24.23
2022-12-11T12:31:17.495Z,15.10
2022-12-11T12:34:02.551Z,23.43
2022-12-11T12:36:47.554Z,26.57
2022-12-11T12:39:39.194Z,16.57
2022-12-11T12:42:08.720Z,13.17
2022-12-11T12:44:58.993Z,173.10
2022-12-11T12:47:30.752Z,19.63
2022-12-11T12:50:00.088Z,13.27
2022-12-11T12:55:14.900Z,16.10
2022-12-11T12:57:44.869Z,25.10
2022-12-11T13:00:13.347Z,21.03
2022-12-11T13:02:50.939Z,22.20
2022-12-11T13:05:33.636Z,15.50
2022-12-11T13:08:04.676Z,32.17
2022-12-11T13:10:38.021Z,14.23
2022-12-11T13:13:06.408Z,17.93
2022-12-11T13:15:35.314Z,19.88
2022-12-11T13:18:07.418Z,15.32
2022-12-11T13:20:34.928Z,31.80
2022-12-11T13:23:07.652Z,23.90
2022-12-11T13:25:52.268Z,56.10
2022-12-11T13:28:26.773Z,17.17
2022-12-11T13:31:00.861Z,17.13
2022-12-11T13:33:30.470Z,16.27
2022-12-11T13:36:22.914Z,20.10
2022-12-11T13:38:59.948Z,37.07
2022-12-11T13:41:28.805Z,69.57
2022-12-11T13:43:58.100Z,55.97
2022-12-11T13:46:29.456Z,19.10
2022-12-11T14:15:23.290Z,16.13
2022-12-11T14:17:52.073Z,17.93
2022-12-11T14:20:24.978Z,26.08
2022-12-11T14:22:52.099Z,14.70
2022-12-11T14:25:27.332Z,25.23
2022-12-11T14:27:56.891Z,22.47
2022-12-11T14:30:26.702Z,31.90
2022-12-11T14:32:57.658Z,21.93
2022-12-11T14:35:29.577Z,12.20
2022-12-11T14:38:03.773Z,18.93
2022-12-11T14:40:37.966Z,15.70
2022-12-11T14:43:12.202Z,18.30
2022-12-11T14:45:42.296Z,17.20
2022-12-11T14:48:17.048Z,17.70
2022-12-11T14:50:53.645Z,14.33
2022-12-11T14:53:33.556Z,13.60
2022-12-11T14:56:04.899Z,13.83
2022-12-11T14:58:37.521Z,14.03
2022-12-11T15:01:26.606Z,12.63
2022-12-11T15:04:15.623Z,14.97
2022-12-11T15:06:47.592Z,15.27
2022-12-11T15:09:25.549Z,10.80
2022-12-11T15:11:55.229Z,12.97
2022-12-11T15:14:24.041Z,14.27
2022-12-11T15:16:53.032Z,12.27
2022-12-11T15:19:31.776Z,12.87
2022-12-11T15:22:04.495Z,12.60
2022-12-11T15:24:41.804Z,16.27
2022-12-11T15:27:38.068Z,13.30
2022-12-11T15:30:29.485Z,15.03
2022-12-11T15:33:11.385Z,12.50
2022-12-11T15:35:40.357Z,12.00
2022-12-11T15:38:25.437Z,12.82
2022-12-11T15:40:52.601Z,12.67
2022-12-11T15:43:19.442Z,12.30
2022-12-11T15:45:46.721Z,13.30
2022-12-11T15:48:13.596Z,11.70
2022-12-11T15:50:40.863Z,13.67
2022-12-11T15:53:07.859Z,11.03
2022-12-11T15:55:35.190Z,11.43
2022-12-11T15:58:06.080Z,13.73
2022-12-11T16:00:33.202Z,15.90
2022-12-11T16:03:00.066Z,19.60
2022-12-11T16:05:27.840Z,13.47
2022-12-11T16:07:59.659Z,20.10
2022-12-11T16:10:27.203Z,14.40
2022-12-11T16:12:59.379Z,11.93
2022-12-11T16:15:27.255Z,13.40
2022-12-11T16:18:01.253Z,13.50
2022-12-11T16:20:28.687Z,13.80
2022-12-11T16:22:55.531Z,13.03
2022-12-11T16:25:23.157Z,12.43
2022-12-11T16:27:50.024Z,11.73
2022-12-11T16:30:17.104Z,13.30
2022-12-11T16:32:44.373Z,10.53
2022-12-11T16:35:11.566Z,10.67
2022-12-11T16:37:38.498Z,11.90
2022-12-11T16:40:06.714Z,12.00
2022-12-11T16:42:33.695Z,12.53
2022-12-11T16:45:12.583Z,11.10
2022-12-11T16:47:42.725Z,11.45
2022-12-11T16:50:11.083Z,11.50
2022-12-11T16:52:38.006Z,8.33
2022-12-11T16:55:05.555Z,11.53
2022-12-11T16:57:32.662Z,11.70
2022-12-11T16:59:59.757Z,12.50
2022-12-11T17:02:26.579Z,10.43
2022-12-11T17:04:54.289Z,12.83
2022-12-11T17:07:21.132Z,12.00
2022-12-11T17:09:48.388Z,12.17
2022-12-11T17:12:15.188Z,12.53
2022-12-11T17:14:42.376Z,12.27
2022-12-11T17:17:09.344Z,12.23
2022-12-11T17:19:36.628Z,11.10
2022-12-11T17:22:04.701Z,10.40
2022-12-11T17:24:31.791Z,11.60
2022-12-11T17:26:59.777Z,12.17
2022-12-11T17:29:26.897Z,13.05
2022-12-11T17:31:53.796Z,12.00
2022-12-11T17:34:20.844Z,12.33
2022-12-11T17:36:47.838Z,12.07
2022-12-11T17:39:15.172Z,10.70
2022-12-11T17:41:42.013Z,12.17
2022-12-11T17:44:09.637Z,13.40
2022-12-11T17:46:36.539Z,12.07
2022-12-11T17:49:05.202Z,12.30
2022-12-11T17:51:31.999Z,12.63
2022-12-11T17:53:59.234Z,12.60
2022-12-11T17:56:27.212Z,15.20
2022-12-11T17:58:54.421Z,15.90
2022-12-11T18:01:21.678Z,13.30
2022-12-11T18:03:48.994Z,15.33
2022-12-11T18:06:16.836Z,14.03
2022-12-11T18:08:45.700Z,16.33
2022-12-11T18:11:16.551Z,14.55
2022-12-11T18:13:45.020Z,28.97
2022-12-11T18:16:13.562Z,30.60
2022-12-11T18:21:07.661Z,20.50
2022-12-11T18:23:34.820Z,19.77
2022-12-11T18:26:01.705Z,16.80
2022-12-11T18:28:31.781Z,14.60
2022-12-11T18:31:02.345Z,16.10
2022-12-11T18:33:31.250Z,15.50
2022-12-11T18:35:58.048Z,15.95
2022-12-11T18:38:25.197Z,14.97
2022-12-11T18:40:52.028Z,16.27
2022-12-11T18:43:19.361Z,15.20
2022-12-11T18:45:46.382Z,17.70
2022-12-11T18:48:15.062Z,17.47
2022-12-11T18:50:49.559Z,23.05
2022-12-11T18:53:18.592Z,29.20
2022-12-11T18:55:47.480Z,20.08
2022-12-11T18:58:18.245Z,22.53
2022-12-11T19:00:45.882Z,19.63
2022-12-11T19:03:14.202Z,16.87
2022-12-11T19:05:43.867Z,16.67
2022-12-11T19:08:14.350Z,20.27
2022-12-11T19:10:46.497Z,20.47
2022-12-11T19:13:14.724Z,20.80
2022-12-11T19:15:43.474Z,28.70
2022-12-11T19:20:49.209Z,16.37
2022-12-11T19:23:18.398Z,19.27
2022-12-11T19:25:46.951Z,16.23
2022-12-11T19:30:44.045Z,19.20
2022-12-11T19:33:12.028Z,20.47
2022-12-11T19:35:39.174Z,18.33
2022-12-11T19:38:06.440Z,18.63
2022-12-11T19:40:33.318Z,19.80
2022-12-11T19:43:00.462Z,18.83
2022-12-11T19:45:27.245Z,17.70
2022-12-11T19:47:54.341Z,20.30
2022-12-11T19:50:21.227Z,18.40
2022-12-11T19:52:48.354Z,17.47
2022-12-11T19:55:16.686Z,18.37
2022-12-11T19:57:43.900Z,19.65
2022-12-11T20:00:11.495Z,16.63
2022-12-11T20:02:38.693Z,17.20
2022-12-11T20:05:05.978Z,16.77
2022-12-11T20:07:33.115Z,17.33
2022-12-11T20:10:00.460Z,17.73
2022-12-11T20:12:28.564Z,19.27
2022-12-11T20:14:55.527Z,17.70
2022-12-11T20:17:22.722Z,19.37
2022-12-11T20:19:49.624Z,19.00
2022-12-11T20:22:16.733Z,15.30
2022-12-11T20:24:43.646Z,16.27
2022-12-11T20:27:12.525Z,17.30
2022-12-11T20:29:39.914Z,16.85
2022-12-11T20:32:07.508Z,15.70
2022-12-11T20:34:34.492Z,14.23
2022-12-11T20:37:01.624Z,13.30
2022-12-11T20:39:29.112Z,15.43
2022-12-11T20:41:56.244Z,17.20
2022-12-11T20:44:23.126Z,15.20
2022-12-11T20:46:50.914Z,16.70
2022-12-11T20:49:17.735Z,16.77
2022-12-11T20:51:44.895Z,15.17
2022-12-11T20:54:11.920Z,15.77
2022-12-11T20:56:39.077Z,14.93
2022-12-11T20:59:05.962Z,17.27
2022-12-11T21:01:33.221Z,13.10
2022-12-11T21:04:00.952Z,13.90
2022-12-11T21:06:34.460Z,9.90
2022-12-11T21:09:05.396Z,14.63
2022-12-11T21:11:32.658Z,14.20
2022-12-11T21:13:59.882Z,15.60
2022-12-11T21:16:27.517Z,14.73
2022-12-11T21:18:56.460Z,14.80
2022-12-11T21:21:24.537Z,14.70
2022-12-11T21:23:51.552Z,14.73
2022-12-11T21:26:19.217Z,16.73
2022-12-11T21:28:46.201Z,14.40
2022-12-11T21:31:16.710Z,16.93
2022-12-11T21:33:44.104Z,17.20
2022-12-11T21:36:13.216Z,15.53
2022-12-11T21:38:41.793Z,13.82
2022-12-11T21:43:42.741Z,17.98
2022-12-11T21:46:17.099Z,16.52
2022-12-11T21:48:44.968Z,16.48
2022-12-11T21:51:13.851Z,13.65
2022-12-11T21:53:40.892Z,14.10
2022-12-11T21:56:10.206Z,15.30
2022-12-11T21:58:39.410Z,15.97
2022-12-11T22:01:14.002Z,16.67
2022-12-11T22:03:41.143Z,14.67
2022-12-11T22:06:08.633Z,16.07
2022-12-11T22:08:35.517Z,17.23
2022-12-11T22:11:02.721Z,16.77
2022-12-11T22:13:29.602Z,16.73
2022-12-11T22:15:56.661Z,20.80
2022-12-11T22:18:27.128Z,19.33
2022-12-11T22:20:54.836Z,18.67
2022-12-11T22:23:21.800Z,18.17
2022-12-11T22:25:49.978Z,20.40
2022-12-11T22:28:16.791Z,18.23
2022-12-11T22:30:44.373Z,20.00
2022-12-11T22:33:11.285Z,18.80
2022-12-11T22:35:38.441Z,15.80
2022-12-11T22:38:06.617Z,17.70
2022-12-11T22:40:34.032Z,19.92
2022-12-11T22:43:00.833Z,17.87
2022-12-11T22:45:27.953Z,18.97
2022-12-11T22:47:54.806Z,21.23
2022-12-11T22:50:21.931Z,18.53
2022-12-11T22:52:48.763Z,19.27
2022-12-11T22:55:15.870Z,17.80
2022-12-11T22:57:42.655Z,19.53
2022-12-11T23:00:12.640Z,18.83
2022-12-11T23:02:39.938Z,21.33
2022-12-11T23:05:07.735Z,21.77
2022-12-11T23:07:34.533Z,21.43
2022-12-11T23:10:02.086Z,18.03
2022-12-11T23:12:28.981Z,21.50
2022-12-11T23:14:56.189Z,16.70
2022-12-11T23:17:23.191Z,17.60
2022-12-11T23:19:50.314Z,19.33
2022-12-11T23:22:17.578Z,17.90
2022-12-11T23:24:44.734Z,14.30
2022-12-11T23:27:11.558Z,18.13
2022-12-11T23:29:39.274Z,17.00
2022-12-11T23:32:06.056Z,16.57
2022-12-11T23:34:33.526Z,18.07
2022-12-11T23:37:00.503Z,16.30
2022-12-11T23:39:27.896Z,18.03
2022-12-11T23:41:54.687Z,16.30
2022-12-11T23:44:21.787Z,17.80
2022-12-11T23:46:48.572Z,17.57
2022-12-11T23:49:15.626Z,20.53
2022-12-11T23:51:42.561Z,18.43
2022-12-11T23:54:09.671Z,17.93
2022-12-11T23:56:36.517Z,19.23
2022-12-11T23:59:03.651Z,19.77
